Dell City, Texas
Current Conditions -  °F | °C
As of 9:51 PM on Saturday 25 Oct 2014 (Local Time) from KGDP Reporting Station
Clear Clear  
Wind Chill: 18°   Ceiling: Unl
Heat Index: 18°   Visibility: 10mi
Dew Point:   Wind: 13mph
Humidity: 36%   Direction: 220°SW
Pressure: 30.25"   Gusts: NA
Location:  31.94°N, 105.2°W
Report Text: KGDP 260351Z AUTO 22011KT 10SM CLR 18/03 A3025 RMK AO2 SLP180 T01830028
Loading
Personal Weather Stations






























Interactive Weather Map
Tropical Storm Tracking
New forecast layout! Learn more

10-Day Weather Forecast

Advertisements
Track Severe Weather on mobile